Interlaken, New Jersey
Current Conditions -  °F | °C
As of 3:35 PM on Sunday 25 Jan 2015 (Local Time) from KBLM Reporting Station
Scattered Clouds Scattered Clouds  
Wind Chill: 37°   Ceiling: Unl
Heat Index: 43°   Visibility: 10mi
Dew Point: 27°   Wind: 12mph
Humidity: 53%   Direction: 290°WNW
Pressure: 29.81"   Gusts: NA
Location:  40.2492°N, 74.0521°W
Report Text: KBLM 252035Z AUTO 29010KT 10SM FEW036 SCT044 06/M03 A2981 RMK AO1
Loading
Personal Weather Stations






























Interactive Weather Map New forecast layout! Learn more

10-Day Weather Forecast

Advertisements
Track Severe Weather on mobile